createdAt,value
2022-12-19T00:00:14.979Z,6.60
2022-12-19T00:02:42.722Z,6.52
2022-12-19T00:05:11.413Z,6.41
2022-12-19T00:07:39.538Z,6.49
2022-12-19T00:10:07.694Z,6.56
2022-12-19T00:12:35.117Z,6.49
2022-12-19T00:15:02.663Z,6.73
2022-12-19T00:17:30.296Z,6.84
2022-12-19T00:19:58.042Z,6.73
2022-12-19T00:22:25.710Z,6.74
2022-12-19T00:24:52.979Z,6.55
2022-12-19T00:27:20.589Z,6.81
2022-12-19T00:29:48.531Z,6.65
2022-12-19T00:32:16.691Z,6.63
2022-12-19T00:34:44.240Z,6.70
2022-12-19T00:37:12.231Z,6.91
2022-12-19T00:39:39.993Z,6.90
2022-12-19T00:42:07.464Z,6.93
2022-12-19T00:44:34.745Z,6.70
2022-12-19T00:47:02.591Z,6.71
2022-12-19T00:49:31.159Z,6.82
2022-12-19T00:52:00.043Z,6.88
2022-12-19T00:54:27.408Z,6.84
2022-12-19T00:56:55.587Z,6.83
2022-12-19T00:59:26.862Z,6.71
2022-12-19T01:01:57.864Z,6.66
2022-12-19T01:04:28.905Z,6.64
2022-12-19T01:07:01.864Z,6.85
2022-12-19T01:09:34.625Z,6.69
2022-12-19T01:12:24.341Z,6.67
2022-12-19T01:15:04.858Z,6.93
2022-12-19T01:17:43.807Z,6.66
2022-12-19T01:20:22.224Z,6.58
2022-12-19T01:23:00.234Z,6.60
2022-12-19T01:25:28.945Z,6.76
2022-12-19T01:27:57.372Z,6.69
2022-12-19T01:30:25.007Z,6.77
2022-12-19T01:32:53.700Z,6.71
2022-12-19T01:35:22.233Z,6.92
2022-12-19T01:37:51.326Z,7.06
2022-12-19T01:40:19.908Z,7.11
2022-12-19T01:42:49.182Z,7.12
2022-12-19T01:45:17.352Z,7.14
2022-12-19T01:48:10.615Z,7.16
2022-12-19T01:50:42.965Z,7.21
2022-12-19T01:53:48.942Z,7.26
2022-12-19T01:56:24.907Z,7.18
2022-12-19T01:58:56.120Z,7.24
2022-12-19T02:01:50.919Z,7.11
2022-12-19T02:04:25.545Z,7.26
2022-12-19T02:06:55.361Z,7.50
2022-12-19T02:09:25.188Z,7.60
2022-12-19T02:11:53.822Z,7.58
2022-12-19T02:14:21.782Z,7.52
2022-12-19T02:16:52.716Z,7.59
2022-12-19T02:19:52.536Z,7.49
2022-12-19T02:22:34.595Z,7.55
2022-12-19T02:25:05.262Z,7.50
2022-12-19T02:28:01.852Z,7.46
2022-12-19T02:30:36.087Z,7.43
2022-12-19T02:33:08.690Z,7.43
2022-12-19T02:35:41.247Z,7.59
2022-12-19T02:38:28.676Z,7.54
2022-12-19T02:41:01.577Z,7.38
2022-12-19T02:43:31.491Z,7.39
2022-12-19T02:45:59.892Z,7.41
2022-12-19T02:48:27.780Z,7.41
2022-12-19T02:50:55.355Z,7.49
2022-12-19T02:53:23.931Z,7.26
2022-12-19T02:56:21.426Z,7.34
2022-12-19T02:59:23.647Z,7.43
2022-12-19T03:02:04.302Z,7.59
2022-12-19T03:04:47.771Z,7.54
2022-12-19T03:07:37.678Z,7.69
2022-12-19T03:10:15.108Z,7.50
2022-12-19T03:13:00.816Z,7.52
2022-12-19T03:15:28.710Z,7.72
2022-12-19T03:17:58.221Z,7.56
2022-12-19T03:20:28.800Z,7.65
2022-12-19T03:22:56.133Z,7.66
2022-12-19T03:25:24.358Z,7.79
2022-12-19T03:27:53.300Z,7.70
2022-12-19T03:30:21.086Z,7.57
2022-12-19T03:32:48.846Z,7.64
2022-12-19T03:35:20.843Z,7.69
2022-12-19T03:37:50.478Z,7.72
2022-12-19T03:40:20.368Z,7.69
2022-12-19T03:43:06.472Z,7.57
2022-12-19T03:45:40.169Z,7.55
2022-12-19T03:48:11.258Z,7.65
2022-12-19T03:50:50.859Z,7.64
2022-12-19T03:53:30.663Z,7.73
2022-12-19T03:56:30.135Z,7.84
2022-12-19T03:59:08.921Z,7.78
2022-12-19T04:01:36.832Z,7.94
2022-12-19T04:04:05.094Z,7.83
2022-12-19T04:06:33.768Z,8.15
2022-12-19T04:09:01.452Z,8.00
2022-12-19T04:11:34.069Z,7.88
2022-12-19T04:14:04.655Z,7.89
2022-12-19T04:17:10.504Z,7.87
2022-12-19T04:19:44.086Z,7.86
2022-12-19T04:23:04.170Z,8.00
2022-12-19T04:25:35.651Z,8.02
2022-12-19T04:28:06.066Z,7.92
2022-12-19T04:30:36.825Z,7.98
2022-12-19T04:33:04.598Z,7.96
2022-12-19T04:35:32.686Z,7.96
2022-12-19T04:38:00.416Z,8.00
2022-12-19T04:40:28.393Z,7.89
2022-12-19T04:42:55.872Z,7.96
2022-12-19T04:45:23.378Z,8.03
2022-12-19T04:47:51.152Z,8.04
2022-12-19T04:50:18.937Z,8.17
2022-12-19T04:52:46.523Z,8.31
2022-12-19T04:55:13.940Z,8.20
2022-12-19T04:57:41.392Z,8.02
2022-12-19T05:00:09.782Z,8.23
2022-12-19T05:02:38.418Z,8.14
2022-12-19T05:05:06.148Z,8.17
2022-12-19T05:07:33.637Z,8.28
2022-12-19T05:10:01.787Z,8.21
2022-12-19T05:12:29.731Z,8.32
2022-12-19T05:14:57.056Z,8.33
2022-12-19T05:17:24.530Z,8.11
2022-12-19T05:19:52.098Z,8.35
2022-12-19T05:22:19.644Z,8.43
2022-12-19T05:24:47.122Z,8.29
2022-12-19T05:27:15.717Z,8.32
2022-12-19T05:29:43.325Z,8.28
2022-12-19T05:32:10.769Z,8.25
2022-12-19T05:34:38.175Z,8.35
2022-12-19T05:37:05.582Z,8.47
2022-12-19T05:39:32.976Z,8.28
2022-12-19T05:42:00.850Z,8.51
2022-12-19T05:44:28.469Z,8.34
2022-12-19T05:46:55.814Z,8.43
2022-12-19T05:49:23.164Z,8.39
2022-12-19T05:51:52.319Z,8.33
2022-12-19T05:54:19.902Z,8.40
2022-12-19T05:56:47.215Z,8.47
2022-12-19T05:59:14.555Z,8.45
2022-12-19T06:01:42.633Z,8.16
2022-12-19T06:04:10.382Z,8.39
2022-12-19T06:06:38.149Z,8.40
2022-12-19T06:09:05.521Z,8.43
2022-12-19T06:11:33.156Z,8.38
2022-12-19T06:14:00.933Z,8.29
2022-12-19T06:16:28.657Z,8.50
2022-12-19T06:18:56.082Z,8.53
2022-12-19T06:21:23.730Z,8.51
2022-12-19T06:23:51.741Z,8.67
2022-12-19T06:26:20.784Z,8.73
2022-12-19T06:28:49.408Z,8.51
2022-12-19T06:31:19.180Z,8.47
2022-12-19T06:33:46.826Z,8.46
2022-12-19T06:36:20.216Z,8.58
2022-12-19T06:38:48.966Z,8.61
2022-12-19T06:41:35.945Z,8.50
2022-12-19T06:44:06.319Z,8.48
2022-12-19T06:46:34.556Z,8.47
2022-12-19T06:49:02.214Z,8.44
2022-12-19T06:51:30.230Z,8.51
2022-12-19T06:53:57.677Z,8.62
2022-12-19T06:56:25.378Z,8.61
2022-12-19T06:58:53.077Z,8.45
2022-12-19T07:01:34.889Z,8.50
2022-12-19T07:04:02.400Z,8.48
2022-12-19T07:06:29.981Z,8.47
2022-12-19T07:08:57.840Z,8.45
2022-12-19T07:11:25.513Z,8.68
2022-12-19T07:13:52.852Z,8.40
2022-12-19T07:16:20.752Z,8.47
2022-12-19T07:18:49.571Z,8.84
2022-12-19T07:21:17.189Z,8.79
2022-12-19T07:23:44.947Z,8.63
2022-12-19T07:26:12.861Z,8.71
2022-12-19T07:28:40.767Z,8.84
2022-12-19T07:31:08.553Z,9.12
2022-12-19T07:33:35.859Z,9.16
2022-12-19T07:36:03.228Z,9.28
2022-12-19T07:38:30.747Z,9.42
2022-12-19T07:41:01.690Z,9.55
2022-12-19T07:43:29.268Z,9.62
2022-12-19T07:45:56.934Z,9.15
2022-12-19T07:48:24.534Z,9.13
2022-12-19T07:50:52.055Z,8.92
2022-12-19T07:53:19.643Z,8.84
2022-12-19T07:55:50.803Z,8.79
2022-12-19T07:58:18.436Z,8.64
2022-12-19T08:00:45.962Z,8.74
2022-12-19T08:03:13.424Z,8.85
2022-12-19T08:05:40.948Z,8.84
2022-12-19T08:08:08.897Z,8.58
2022-12-19T08:10:36.542Z,8.59
2022-12-19T08:13:03.812Z,8.74
2022-12-19T08:15:31.401Z,8.80
2022-12-19T08:17:59.179Z,8.87
2022-12-19T08:20:26.737Z,8.97
2022-12-19T08:22:54.459Z,8.76
2022-12-19T08:25:21.696Z,8.77
2022-12-19T08:27:49.166Z,8.76
2022-12-19T08:30:16.768Z,8.74
2022-12-19T08:32:45.399Z,8.92
2022-12-19T08:35:12.832Z,8.88
2022-12-19T08:37:40.171Z,9.10
2022-12-19T08:40:08.653Z,9.09
2022-12-19T08:42:36.241Z,9.05
2022-12-19T08:45:04.949Z,9.09
2022-12-19T08:47:35.979Z,9.36
2022-12-19T08:50:04.561Z,9.29
2022-12-19T08:52:31.863Z,9.41
2022-12-19T08:54:59.381Z,9.19
2022-12-19T08:57:26.938Z,9.07
2022-12-19T08:59:54.482Z,9.15
2022-12-19T09:02:24.273Z,9.27
2022-12-19T09:06:00.270Z,9.54
2022-12-19T09:07:41.158Z,9.59
2022-12-19T09:10:08.714Z,9.47
2022-12-19T09:12:36.050Z,9.52
2022-12-19T09:15:03.899Z,9.50
2022-12-19T09:17:31.753Z,9.33
2022-12-19T09:19:59.141Z,9.26
2022-12-19T09:22:27.771Z,9.47
2022-12-19T09:24:59.641Z,9.54
2022-12-19T09:27:27.203Z,9.32
2022-12-19T09:29:54.465Z,9.64
2022-12-19T09:32:22.069Z,9.85
2022-12-19T09:34:49.912Z,9.88
2022-12-19T09:37:19.055Z,10.01
2022-12-19T09:39:47.015Z,9.94
2022-12-19T09:42:50.598Z,9.93
2022-12-19T09:45:31.650Z,10.11
2022-12-19T09:48:02.565Z,10.21
2022-12-19T09:50:45.792Z,10.11
2022-12-19T09:53:21.628Z,10.09
2022-12-19T09:55:52.638Z,10.24
2022-12-19T09:58:36.815Z,10.12
2022-12-19T10:01:21.433Z,9.87
2022-12-19T10:04:00.541Z,9.96
2022-12-19T10:07:12.467Z,10.01
2022-12-19T10:11:21.812Z,9.97
2022-12-19T10:12:44.610Z,9.99
2022-12-19T10:15:35.772Z,10.14
2022-12-19T10:18:33.242Z,10.23
2022-12-19T10:21:11.860Z,10.45
2022-12-19T10:23:50.171Z,10.18
2022-12-19T10:26:37.502Z,10.20
2022-12-19T10:29:35.691Z,10.42
2022-12-19T10:32:13.293Z,10.53
2022-12-19T10:34:43.353Z,10.53
2022-12-19T10:37:26.783Z,10.32
2022-12-19T10:40:04.802Z,10.29
2022-12-19T10:42:45.858Z,10.23
2022-12-19T10:45:19.634Z,10.20
2022-12-19T10:47:48.666Z,10.27
2022-12-19T10:50:25.902Z,10.36
2022-12-19T10:52:56.957Z,10.49
2022-12-19T10:55:37.051Z,10.62
2022-12-19T10:58:25.020Z,10.74
2022-12-19T11:01:00.358Z,10.78
2022-12-19T11:03:28.260Z,10.66
2022-12-19T11:05:58.545Z,10.64
2022-12-19T11:08:33.663Z,10.85
2022-12-19T11:13:24.753Z,10.91
2022-12-19T11:17:11.760Z,10.90
2022-12-19T11:23:16.737Z,10.92
2022-12-19T11:29:19.132Z,10.87
2022-12-19T11:29:41.073Z,10.96
2022-12-19T11:29:45.691Z,10.94
2022-12-19T11:30:45.728Z,11.06
2022-12-19T11:34:19.079Z,11.18
2022-12-19T11:37:05.099Z,11.24
2022-12-19T11:39:39.321Z,11.24
2022-12-19T11:42:30.650Z,11.30
2022-12-19T11:45:11.812Z,11.44
2022-12-19T11:47:45.427Z,11.45
2022-12-19T11:50:18.960Z,11.29
2022-12-19T11:53:16.673Z,11.38
2022-12-19T11:55:56.403Z,11.43
2022-12-19T11:58:25.330Z,11.65
2022-12-19T12:01:05.587Z,11.55
2022-12-19T12:03:40.191Z,11.62
2022-12-19T12:06:13.769Z,11.73
2022-12-19T12:12:10.424Z,11.78
2022-12-19T12:19:13.728Z,11.89
2022-12-19T12:21:44.148Z,11.81
2022-12-19T12:29:49.688Z,12.19
2022-12-19T12:31:12.421Z,12.54
2022-12-19T12:31:18.281Z,12.64
2022-12-19T12:31:46.439Z,12.71
2022-12-19T12:31:57.406Z,12.78
2022-12-19T12:35:45.389Z,12.74
2022-12-19T12:38:00.446Z,12.64
2022-12-19T12:38:36.067Z,12.92
2022-12-19T12:41:10.642Z,12.81
2022-12-19T12:44:02.552Z,12.78
2022-12-19T12:46:37.331Z,12.77
2022-12-19T12:49:07.262Z,12.71
2022-12-19T12:51:37.047Z,12.67
2022-12-19T12:54:11.123Z,12.61
2022-12-19T12:56:39.209Z,12.65
2022-12-19T12:59:22.741Z,12.76
2022-12-19T13:02:21.410Z,12.76
2022-12-19T13:05:00.163Z,12.73
2022-12-19T13:07:42.043Z,12.76
2022-12-19T13:10:16.677Z,12.76
2022-12-19T13:13:02.856Z,12.78
2022-12-19T13:15:32.104Z,12.96
2022-12-19T13:18:09.425Z,12.90
2022-12-19T13:20:45.284Z,12.94
2022-12-19T13:23:32.124Z,12.97
2022-12-19T13:25:59.587Z,12.73
2022-12-19T13:28:26.829Z,12.66
2022-12-19T13:31:20.550Z,12.96
2022-12-19T13:33:55.145Z,12.88
2022-12-19T13:39:49.008Z,13.10
2022-12-19T13:40:11.013Z,12.89
2022-12-19T13:43:10.435Z,12.85
2022-12-19T13:45:40.996Z,12.92
2022-12-19T13:48:16.138Z,12.82
2022-12-19T13:50:44.430Z,12.91
2022-12-19T13:53:16.363Z,12.92
2022-12-19T13:55:43.998Z,12.93
2022-12-19T13:58:29.736Z,12.91
2022-12-19T14:01:01.426Z,12.74
2022-12-19T14:03:38.600Z,13.12
2022-12-19T14:06:19.621Z,13.26
2022-12-19T14:09:46.247Z,13.10
2022-12-19T14:13:44.343Z,13.08
2022-12-19T14:14:47.345Z,13.06
2022-12-19T14:17:18.575Z,13.02
2022-12-19T14:19:48.620Z,12.92
2022-12-19T14:22:25.441Z,12.99
2022-12-19T14:25:49.292Z,12.93
2022-12-19T14:28:23.323Z,12.92
2022-12-19T14:30:56.483Z,12.97
2022-12-19T14:33:44.324Z,12.92
2022-12-19T14:36:25.709Z,12.96
2022-12-19T14:39:22.152Z,13.04
2022-12-19T14:42:02.740Z,12.96
2022-12-19T14:53:52.527Z,12.97
2022-12-19T14:54:16.485Z,13.12
2022-12-19T14:54:16.868Z,13.13
2022-12-19T14:54:35.864Z,13.11
2022-12-19T14:56:31.073Z,13.06
2022-12-19T14:59:00.616Z,12.97
2022-12-19T15:01:30.819Z,13.08
2022-12-19T15:04:49.127Z,13.25
2022-12-19T15:07:08.732Z,13.33
2022-12-19T15:11:03.401Z,13.31
2022-12-19T15:14:04.097Z,13.27
2022-12-19T15:15:47.911Z,13.18
2022-12-19T15:18:19.919Z,13.11
2022-12-19T15:20:47.287Z,13.10
2022-12-19T15:23:21.544Z,13.05
2022-12-19T15:26:07.398Z,13.09
2022-12-19T15:28:43.098Z,13.13
2022-12-19T15:31:27.808Z,13.03
2022-12-19T15:36:42.688Z,13.13
2022-12-19T15:39:09.958Z,13.13
2022-12-19T15:41:37.277Z,13.16
2022-12-19T15:44:20.898Z,13.15
2022-12-19T15:46:49.484Z,13.26
2022-12-19T15:49:19.102Z,13.19
2022-12-19T15:51:47.152Z,13.16
2022-12-19T15:54:47.272Z,13.07
2022-12-19T15:57:02.144Z,13.12
2022-12-19T15:59:37.699Z,13.09
2022-12-19T16:02:16.529Z,13.12
2022-12-19T16:04:44.892Z,13.07
2022-12-19T16:07:19.620Z,13.09
2022-12-19T16:09:48.101Z,13.18
2022-12-19T16:12:22.079Z,13.07
2022-12-19T16:14:55.277Z,13.16
2022-12-19T16:17:23.988Z,13.17
2022-12-19T16:19:51.884Z,13.15
2022-12-19T16:22:22.436Z,13.28
2022-12-19T16:24:51.056Z,13.27
2022-12-19T16:27:24.486Z,13.22
2022-12-19T16:29:52.166Z,13.27
2022-12-19T16:32:20.295Z,13.33
2022-12-19T16:34:47.553Z,13.26
2022-12-19T16:37:15.429Z,13.33
2022-12-19T16:39:42.710Z,13.45
2022-12-19T16:42:17.576Z,13.52
2022-12-19T16:44:48.293Z,13.66
2022-12-19T16:47:17.723Z,13.44
2022-12-19T16:49:45.325Z,13.34
2022-12-19T16:52:12.760Z,13.22
2022-12-19T16:54:40.406Z,13.16
2022-12-19T16:57:18.719Z,13.16
2022-12-19T16:59:46.388Z,13.18
2022-12-19T17:02:29.132Z,13.10
2022-12-19T17:04:56.736Z,13.15
2022-12-19T17:07:24.037Z,13.22
2022-12-19T17:09:51.468Z,13.21
2022-12-19T17:12:19.082Z,13.28
2022-12-19T17:14:46.480Z,13.20
2022-12-19T17:17:15.500Z,13.09
2022-12-19T17:19:45.129Z,13.17
2022-12-19T17:22:14.163Z,13.15
2022-12-19T17:24:42.144Z,13.27
2022-12-19T17:27:09.630Z,13.24
2022-12-19T17:29:36.956Z,13.27
2022-12-19T17:32:06.794Z,13.22
2022-12-19T17:34:34.977Z,13.25
2022-12-19T17:37:04.559Z,13.22
2022-12-19T17:39:33.105Z,13.29
2022-12-19T17:42:24.259Z,13.18
2022-12-19T17:44:51.953Z,13.21
2022-12-19T17:47:20.868Z,13.30
2022-12-19T17:49:48.903Z,13.18
2022-12-19T17:52:18.118Z,13.14
2022-12-19T17:54:45.694Z,13.25
2022-12-19T17:57:17.584Z,13.25
2022-12-19T17:59:46.792Z,13.30
2022-12-19T18:02:21.676Z,13.34
2022-12-19T18:04:50.077Z,13.46
2022-12-19T18:07:19.209Z,13.20
2022-12-19T18:09:46.756Z,13.35
2022-12-19T18:12:14.352Z,13.33
2022-12-19T18:14:41.816Z,13.46
2022-12-19T18:17:12.357Z,13.37
2022-12-19T18:19:40.086Z,13.38
2022-12-19T18:22:14.112Z,13.47
2022-12-19T18:24:42.055Z,13.45
2022-12-19T18:27:09.444Z,13.51
2022-12-19T18:29:37.106Z,13.62
2022-12-19T18:32:04.628Z,13.44
2022-12-19T18:34:33.636Z,13.45
2022-12-19T18:37:02.215Z,13.35
2022-12-19T18:39:30.758Z,13.35
2022-12-19T18:41:58.045Z,13.22
2022-12-19T18:44:25.369Z,13.25
2022-12-19T18:46:53.039Z,13.25
2022-12-19T18:49:20.792Z,13.34
2022-12-19T18:51:48.358Z,13.45
2022-12-19T18:54:18.937Z,13.48
2022-12-19T18:56:47.085Z,13.49
2022-12-19T18:59:14.748Z,13.43
2022-12-19T19:01:46.938Z,13.57
2022-12-19T19:04:17.779Z,13.34
2022-12-19T19:06:50.967Z,13.50
2022-12-19T19:09:20.472Z,13.61
2022-12-19T19:12:06.517Z,13.70
2022-12-19T19:14:33.958Z,13.65
2022-12-19T19:17:01.587Z,13.72
2022-12-19T19:19:29.087Z,13.75
2022-12-19T19:21:56.281Z,13.95
2022-12-19T19:24:24.049Z,13.86
2022-12-19T19:26:51.304Z,13.76
2022-12-19T19:29:19.790Z,13.78
2022-12-19T19:31:49.847Z,13.78
2022-12-19T19:34:25.117Z,13.92
2022-12-19T19:36:56.047Z,13.94
2022-12-19T19:39:23.922Z,13.84
2022-12-19T19:41:51.330Z,13.96
2022-12-19T19:44:18.694Z,13.89
2022-12-19T19:46:46.228Z,13.91
2022-12-19T19:49:13.629Z,14.06
2022-12-19T19:51:41.023Z,14.24
2022-12-19T19:54:08.349Z,14.07
2022-12-19T19:56:35.673Z,13.95
2022-12-19T19:59:03.120Z,14.16
2022-12-19T20:01:30.589Z,14.39
2022-12-19T20:03:57.942Z,14.38
2022-12-19T20:06:25.611Z,14.36
2022-12-19T20:08:53.007Z,14.31
2022-12-19T20:11:20.808Z,14.33
2022-12-19T20:13:48.152Z,14.27
2022-12-19T20:16:18.106Z,14.22
2022-12-19T20:18:52.123Z,14.22
2022-12-19T20:21:20.230Z,14.31
2022-12-19T20:23:47.570Z,14.42
2022-12-19T20:26:16.781Z,14.38
2022-12-19T20:28:49.288Z,14.39
2022-12-19T20:31:22.562Z,14.40
2022-12-19T20:33:53.182Z,14.35
2022-12-19T20:36:20.632Z,14.19
2022-12-19T20:38:48.550Z,14.44
2022-12-19T20:41:16.583Z,14.34
2022-12-19T20:43:44.872Z,14.51
2022-12-19T20:46:18.138Z,14.36
2022-12-19T20:48:46.732Z,14.36
2022-12-19T20:51:15.523Z,14.45
2022-12-19T20:53:44.970Z,14.29
2022-12-19T20:56:15.589Z,14.30
2022-12-19T20:58:43.052Z,14.34
2022-12-19T21:01:15.986Z,14.36
2022-12-19T21:03:45.630Z,14.54
2022-12-19T21:06:18.368Z,14.39
2022-12-19T21:08:46.128Z,14.29
2022-12-19T21:11:15.385Z,14.39
2022-12-19T21:13:43.058Z,14.32
2022-12-19T21:16:17.457Z,14.53
2022-12-19T21:18:46.646Z,14.44
2022-12-19T21:21:16.589Z,14.34
2022-12-19T21:23:45.542Z,14.21
2022-12-19T21:26:12.930Z,14.29
2022-12-19T21:28:40.379Z,14.27
2022-12-19T21:31:20.141Z,14.34
2022-12-19T21:33:47.983Z,14.46
2022-12-19T21:36:20.806Z,14.35
2022-12-19T21:38:49.937Z,14.29
2022-12-19T21:41:19.239Z,14.30
2022-12-19T21:43:53.574Z,14.37
2022-12-19T21:46:27.340Z,14.50
2022-12-19T21:48:57.092Z,14.55
2022-12-19T21:51:31.896Z,14.44
2022-12-19T21:54:01.888Z,14.44
2022-12-19T21:56:40.300Z,14.45
2022-12-19T21:59:13.578Z,14.46
2022-12-19T22:01:42.735Z,14.53
2022-12-19T22:04:16.448Z,14.48
2022-12-19T22:06:44.465Z,14.57
2022-12-19T22:09:25.227Z,14.71
2022-12-19T22:11:56.277Z,14.57
2022-12-19T22:14:23.881Z,14.54
2022-12-19T22:17:02.639Z,14.53
2022-12-19T22:19:30.154Z,14.54
2022-12-19T22:21:57.670Z,14.65
2022-12-19T22:24:27.746Z,14.46
2022-12-19T22:26:57.380Z,14.61
2022-12-19T22:29:24.800Z,14.40
2022-12-19T22:31:52.472Z,14.38
2022-12-19T22:34:21.401Z,14.52
2022-12-19T22:36:49.300Z,14.39
2022-12-19T22:39:20.276Z,14.40
2022-12-19T22:41:47.763Z,14.42
2022-12-19T22:44:21.245Z,14.33
2022-12-19T22:46:49.603Z,14.23
2022-12-19T22:49:17.710Z,14.30
2022-12-19T22:51:45.424Z,14.42
2022-12-19T22:54:13.595Z,14.37
2022-12-19T22:56:41.762Z,14.34
2022-12-19T22:59:11.140Z,14.32
2022-12-19T23:01:42.442Z,14.30
2022-12-19T23:04:12.965Z,14.36
2022-12-19T23:06:42.332Z,14.34
2022-12-19T23:09:14.185Z,14.26
2022-12-19T23:11:44.157Z,14.19
2022-12-19T23:14:14.646Z,14.14
2022-12-19T23:16:44.020Z,14.17
2022-12-19T23:19:12.250Z,14.14
2022-12-19T23:21:39.524Z,14.16
2022-12-19T23:24:07.323Z,14.32
2022-12-19T23:26:37.054Z,14.07
2022-12-19T23:29:07.803Z,14.03
2022-12-19T23:31:35.384Z,14.07
2022-12-19T23:34:02.844Z,13.93
2022-12-19T23:37:08.854Z,14.06
2022-12-19T23:39:17.663Z,14.03
2022-12-19T23:41:44.952Z,14.09
2022-12-19T23:44:12.610Z,13.97
2022-12-19T23:46:41.403Z,13.91
2022-12-19T23:49:08.717Z,13.92
2022-12-19T23:51:36.239Z,13.87
2022-12-19T23:54:04.358Z,13.89
2022-12-19T23:56:33.090Z,13.95
2022-12-19T23:59:00.895Z,13.83
